sensor_id;sensor_type;location;lat;lon;timestamp;pressure;altitude;pressure_sealevel;temperature;humidity
50867;BME280;36839;51.946;21.002;2023-07-28T00:01:06;99350.82;;;13.90;100.00
50867;BME280;36839;51.946;21.002;2023-07-28T00:03:34;99349.81;;;13.91;100.00
50867;BME280;36839;51.946;21.002;2023-07-28T00:06:01;99347.11;;;13.92;100.00
50867;BME280;36839;51.946;21.002;2023-07-28T00:08:28;99344.93;;;13.94;100.00
50867;BME280;36839;51.946;21.002;2023-07-28T00:10:55;99347.95;;;13.92;100.00
50867;BME280;36839;51.946;21.002;2023-07-28T00:13:22;99343.88;;;13.93;100.00
50867;BME280;36839;51.946;21.002;2023-07-28T00:15:50;99343.17;;;13.95;100.00
50867;BME280;36839;51.946;21.002;2023-07-28T00:18:18;99336.70;;;13.94;100.00
50867;BME280;36839;51.946;21.002;2023-07-28T00:20:48;99331.72;;;13.96;100.00
50867;BME280;36839;51.946;21.002;2023-07-28T00:23:15;99333.19;;;13.98;100.00
50867;BME280;36839;51.946;21.002;2023-07-28T00:25:42;99330.80;;;14.01;100.00
50867;BME280;36839;51.946;21.002;2023-07-28T00:28:09;99329.05;;;14.03;100.00
50867;BME280;36839;51.946;21.002;2023-07-28T00:30:36;99326.94;;;14.03;100.00
50867;BME280;36839;51.946;21.002;2023-07-28T00:33:03;99327.80;;;14.06;100.00
50867;BME280;36839;51.946;21.002;2023-07-28T00:35:30;99327.71;;;14.07;100.00
50867;BME280;36839;51.946;21.002;2023-07-28T00:37:57;99323.54;;;14.08;100.00
50867;BME280;36839;51.946;21.002;2023-07-28T00:40:24;99325.73;;;14.11;100.00
50867;BME280;36839;51.946;21.002;2023-07-28T00:42:51;99325.92;;;14.12;100.00
50867;BME280;36839;51.946;21.002;2023-07-28T00:45:18;99326.14;;;14.13;100.00
50867;BME280;36839;51.946;21.002;2023-07-28T00:47:45;99323.20;;;14.13;100.00
50867;BME280;36839;51.946;21.002;2023-07-28T00:50:13;99320.10;;;14.12;100.00
50867;BME280;36839;51.946;21.002;2023-07-28T00:52:40;99316.27;;;14.12;100.00
50867;BME280;36839;51.946;21.002;2023-07-28T00:55:07;99307.09;;;14.13;100.00
50867;BME280;36839;51.946;21.002;2023-07-28T00:57:35;99301.20;;;14.13;100.00
50867;BME280;36839;51.946;21.002;2023-07-28T01:00:02;99297.64;;;14.13;100.00
50867;BME280;36839;51.946;21.002;2023-07-28T01:02:29;99296.80;;;14.14;100.00
50867;BME280;36839;51.946;21.002;2023-07-28T01:04:58;99299.38;;;14.13;100.00
50867;BME280;36839;51.946;21.002;2023-07-28T01:07:35;99303.98;;;14.12;100.00
50867;BME280;36839;51.946;21.002;2023-07-28T01:10:10;99293.01;;;14.14;100.00
50867;BME280;36839;51.946;21.002;2023-07-28T01:12:38;99287.63;;;14.16;100.00
50867;BME280;36839;51.946;21.002;2023-07-28T01:15:06;99287.08;;;14.16;100.00
50867;BME280;36839;51.946;21.002;2023-07-28T01:17:33;99286.61;;;14.16;100.00
50867;BME280;36839;51.946;21.002;2023-07-28T01:20:01;99288.24;;;14.15;100.00
50867;BME280;36839;51.946;21.002;2023-07-28T01:23:14;99295.23;;;14.14;100.00
50867;BME280;36839;51.946;21.002;2023-07-28T01:28:35;99296.12;;;14.16;100.00
50867;BME280;36839;51.946;21.002;2023-07-28T01:31:04;99288.73;;;14.18;100.00
50867;BME280;36839;51.946;21.002;2023-07-28T01:33:32;99287.89;;;14.18;100.00
50867;BME280;36839;51.946;21.002;2023-07-28T01:35:59;99286.95;;;14.20;100.00
50867;BME280;36839;51.946;21.002;2023-07-28T01:38:28;99285.04;;;14.21;100.00
50867;BME280;36839;51.946;21.002;2023-07-28T01:40:55;99284.84;;;14.23;100.00
50867;BME280;36839;51.946;21.002;2023-07-28T01:43:22;99284.74;;;14.24;100.00
50867;BME280;36839;51.946;21.002;2023-07-28T01:45:49;99281.11;;;14.25;100.00
50867;BME280;36839;51.946;21.002;2023-07-28T01:48:17;99280.69;;;14.24;100.00
50867;BME280;36839;51.946;21.002;2023-07-28T01:50:44;99277.95;;;14.23;100.00
50867;BME280;36839;51.946;21.002;2023-07-28T01:53:11;99270.85;;;14.22;100.00
50867;BME280;36839;51.946;21.002;2023-07-28T01:55:38;99266.28;;;14.25;100.00
50867;BME280;36839;51.946;21.002;2023-07-28T01:58:05;99269.30;;;14.28;100.00
50867;BME280;36839;51.946;21.002;2023-07-28T02:00:32;99271.39;;;14.29;100.00
50867;BME280;36839;51.946;21.002;2023-07-28T02:02:59;99275.63;;;14.28;100.00
50867;BME280;36839;51.946;21.002;2023-07-28T02:05:29;99269.10;;;14.27;100.00
50867;BME280;36839;51.946;21.002;2023-07-28T02:07:57;99262.86;;;14.28;100.00
50867;BME280;36839;51.946;21.002;2023-07-28T02:10:26;99252.60;;;14.27;100.00
50867;BME280;36839;51.946;21.002;2023-07-28T02:12:54;99248.70;;;14.30;100.00
50867;BME280;36839;51.946;21.002;2023-07-28T02:15:21;99245.71;;;14.32;100.00
50867;BME280;36839;51.946;21.002;2023-07-28T02:17:48;99245.10;;;14.34;100.00
50867;BME280;36839;51.946;21.002;2023-07-28T02:20:15;99247.39;;;14.36;100.00
50867;BME280;36839;51.946;21.002;2023-07-28T02:22:43;99252.30;;;14.37;100.00
50867;BME280;36839;51.946;21.002;2023-07-28T02:25:10;99248.92;;;14.38;100.00
50867;BME280;36839;51.946;21.002;2023-07-28T02:27:38;99247.48;;;14.38;100.00
50867;BME280;36839;51.946;21.002;2023-07-28T02:30:06;99253.50;;;14.36;100.00
50867;BME280;36839;51.946;21.002;2023-07-28T02:32:33;99253.04;;;14.34;100.00
50867;BME280;36839;51.946;21.002;2023-07-28T02:35:00;99255.24;;;14.31;100.00
50867;BME280;36839;51.946;21.002;2023-07-28T02:37:28;99245.31;;;14.29;100.00
50867;BME280;36839;51.946;21.002;2023-07-28T02:39:55;99249.48;;;14.30;100.00
50867;BME280;36839;51.946;21.002;2023-07-28T02:42:22;99250.96;;;14.26;100.00
50867;BME280;36839;51.946;21.002;2023-07-28T02:44:50;99252.95;;;14.25;100.00
50867;BME280;36839;51.946;21.002;2023-07-28T02:47:17;99253.57;;;14.24;100.00
50867;BME280;36839;51.946;21.002;2023-07-28T02:49:44;99251.88;;;14.25;100.00
50867;BME280;36839;51.946;21.002;2023-07-28T02:52:12;99262.66;;;14.27;100.00
50867;BME280;36839;51.946;21.002;2023-07-28T02:54:39;99260.45;;;14.29;100.00
50867;BME280;36839;51.946;21.002;2023-07-28T02:57:06;99257.90;;;14.28;100.00
50867;BME280;36839;51.946;21.002;2023-07-28T02:59:33;99251.98;;;14.26;100.00
50867;BME280;36839;51.946;21.002;2023-07-28T03:02:00;99254.25;;;14.24;100.00
50867;BME280;36839;51.946;21.002;2023-07-28T03:04:28;99252.04;;;14.24;100.00
50867;BME280;36839;51.946;21.002;2023-07-28T03:06:55;99249.91;;;14.23;100.00
50867;BME280;36839;51.946;21.002;2023-07-28T03:09:22;99249.26;;;14.22;100.00
50867;BME280;36839;51.946;21.002;2023-07-28T03:11:50;99245.37;;;14.24;100.00
50867;BME280;36839;51.946;21.002;2023-07-28T03:14:17;99244.00;;;14.23;100.00
50867;BME280;36839;51.946;21.002;2023-07-28T03:16:44;99239.36;;;14.26;100.00
50867;BME280;36839;51.946;21.002;2023-07-28T03:19:11;99237.70;;;14.28;100.00
50867;BME280;36839;51.946;21.002;2023-07-28T03:21:38;99234.88;;;14.29;100.00
50867;BME280;36839;51.946;21.002;2023-07-28T03:24:05;99231.24;;;14.30;100.00
50867;BME280;36839;51.946;21.002;2023-07-28T03:26:32;99231.53;;;14.33;100.00
50867;BME280;36839;51.946;21.002;2023-07-28T03:28:59;99234.11;;;14.34;100.00
50867;BME280;36839;51.946;21.002;2023-07-28T03:31:26;99232.91;;;14.35;100.00
50867;BME280;36839;51.946;21.002;2023-07-28T03:33:53;99230.23;;;14.37;100.00
50867;BME280;36839;51.946;21.002;2023-07-28T03:36:20;99222.73;;;14.39;100.00
50867;BME280;36839;51.946;21.002;2023-07-28T03:38:47;99217.20;;;14.43;100.00
50867;BME280;36839;51.946;21.002;2023-07-28T03:41:14;99214.98;;;14.47;100.00
50867;BME280;36839;51.946;21.002;2023-07-28T03:43:41;99217.56;;;14.53;100.00
50867;BME280;36839;51.946;21.002;2023-07-28T03:46:09;99220.70;;;14.57;100.00
50867;BME280;36839;51.946;21.002;2023-07-28T03:48:36;99218.90;;;14.62;100.00
50867;BME280;36839;51.946;21.002;2023-07-28T03:51:03;99215.14;;;14.67;100.00
50867;BME280;36839;51.946;21.002;2023-07-28T03:53:31;99210.73;;;14.70;100.00
50867;BME280;36839;51.946;21.002;2023-07-28T03:55:58;99217.30;;;14.75;100.00
50867;BME280;36839;51.946;21.002;2023-07-28T03:58:25;99219.10;;;14.78;100.00
50867;BME280;36839;51.946;21.002;2023-07-28T04:00:52;99214.91;;;14.81;100.00
50867;BME280;36839;51.946;21.002;2023-07-28T04:03:20;99214.09;;;14.84;100.00
50867;BME280;36839;51.946;21.002;2023-07-28T04:05:47;99214.22;;;14.87;100.00
50867;BME280;36839;51.946;21.002;2023-07-28T04:08:16;99205.34;;;14.89;100.00
50867;BME280;36839;51.946;21.002;2023-07-28T04:10:43;99203.09;;;14.93;100.00
50867;BME280;36839;51.946;21.002;2023-07-28T04:13:10;99196.66;;;14.96;100.00
50867;BME280;36839;51.946;21.002;2023-07-28T04:15:38;99199.21;;;14.98;100.00
50867;BME280;36839;51.946;21.002;2023-07-28T04:18:04;99202.69;;;15.01;100.00
50867;BME280;36839;51.946;21.002;2023-07-28T04:20:31;99200.33;;;15.04;100.00
50867;BME280;36839;51.946;21.002;2023-07-28T04:22:59;99196.96;;;15.06;100.00
50867;BME280;36839;51.946;21.002;2023-07-28T04:25:26;99192.03;;;15.09;100.00
50867;BME280;36839;51.946;21.002;2023-07-28T04:27:54;99191.89;;;15.13;100.00
50867;BME280;36839;51.946;21.002;2023-07-28T04:30:22;99193.84;;;15.17;100.00
50867;BME280;36839;51.946;21.002;2023-07-28T04:32:50;99195.05;;;15.25;100.00
50867;BME280;36839;51.946;21.002;2023-07-28T04:35:17;99196.89;;;15.32;100.00
50867;BME280;36839;51.946;21.002;2023-07-28T04:37:44;99192.99;;;15.38;100.00
50867;BME280;36839;51.946;21.002;2023-07-28T04:40:12;99190.83;;;15.45;100.00
50867;BME280;36839;51.946;21.002;2023-07-28T04:42:39;99192.73;;;15.52;100.00
50867;BME280;36839;51.946;21.002;2023-07-28T04:45:06;99185.14;;;15.60;100.00
50867;BME280;36839;51.946;21.002;2023-07-28T04:47:34;99181.22;;;15.67;100.00
50867;BME280;36839;51.946;21.002;2023-07-28T04:50:01;99180.09;;;15.78;100.00
50867;BME280;36839;51.946;21.002;2023-07-28T04:52:28;99177.38;;;15.89;100.00
50867;BME280;36839;51.946;21.002;2023-07-28T04:54:55;99166.80;;;15.98;100.00
50867;BME280;36839;51.946;21.002;2023-07-28T04:57:22;99161.86;;;16.09;100.00
50867;BME280;36839;51.946;21.002;2023-07-28T04:59:49;99159.77;;;16.19;100.00
50867;BME280;36839;51.946;21.002;2023-07-28T05:02:17;99154.10;;;16.28;100.00
50867;BME280;36839;51.946;21.002;2023-07-28T05:04:45;99158.74;;;16.37;100.00
50867;BME280;36839;51.946;21.002;2023-07-28T05:07:12;99152.08;;;16.45;100.00
50867;BME280;36839;51.946;21.002;2023-07-28T05:09:39;99150.20;;;16.52;100.00
50867;BME280;36839;51.946;21.002;2023-07-28T05:12:06;99153.81;;;16.59;100.00
50867;BME280;36839;51.946;21.002;2023-07-28T05:14:34;99152.48;;;16.63;100.00
50867;BME280;36839;51.946;21.002;2023-07-28T05:17:01;99152.61;;;16.66;100.00
50867;BME280;36839;51.946;21.002;2023-07-28T05:19:30;99146.55;;;16.66;100.00
50867;BME280;36839;51.946;21.002;2023-07-28T05:21:57;99150.70;;;16.68;100.00
50867;BME280;36839;51.946;21.002;2023-07-28T05:24:25;99149.04;;;16.69;100.00
50867;BME280;36839;51.946;21.002;2023-07-28T05:26:52;99149.01;;;16.69;100.00
50867;BME280;36839;51.946;21.002;2023-07-28T05:29:19;99148.48;;;16.69;100.00
50867;BME280;36839;51.946;21.002;2023-07-28T05:31:46;99150.73;;;16.70;100.00
50867;BME280;36839;51.946;21.002;2023-07-28T05:34:13;99148.16;;;16.69;100.00
50867;BME280;36839;51.946;21.002;2023-07-28T05:36:40;99153.76;;;16.68;100.00
50867;BME280;36839;51.946;21.002;2023-07-28T05:39:07;99155.17;;;16.67;100.00
50867;BME280;36839;51.946;21.002;2023-07-28T05:41:36;99156.79;;;16.67;100.00
50867;BME280;36839;51.946;21.002;2023-07-28T05:44:04;99152.41;;;16.67;100.00
50867;BME280;36839;51.946;21.002;2023-07-28T05:46:31;99147.40;;;16.70;100.00
50867;BME280;36839;51.946;21.002;2023-07-28T05:48:59;99147.46;;;16.72;100.00
50867;BME280;36839;51.946;21.002;2023-07-28T05:51:26;99142.99;;;16.74;100.00
50867;BME280;36839;51.946;21.002;2023-07-28T05:53:54;99137.52;;;16.77;100.00
50867;BME280;36839;51.946;21.002;2023-07-28T05:56:21;99138.56;;;16.80;100.00
50867;BME280;36839;51.946;21.002;2023-07-28T05:58:49;99141.46;;;16.83;100.00
50867;BME280;36839;51.946;21.002;2023-07-28T06:01:17;99139.40;;;16.86;100.00
50867;BME280;36839;51.946;21.002;2023-07-28T06:03:45;99141.88;;;16.88;100.00
50867;BME280;36839;51.946;21.002;2023-07-28T06:06:12;99144.52;;;16.88;100.00
50867;BME280;36839;51.946;21.002;2023-07-28T06:08:39;99143.70;;;16.88;100.00
50867;BME280;36839;51.946;21.002;2023-07-28T06:11:06;99142.17;;;16.90;100.00
50867;BME280;36839;51.946;21.002;2023-07-28T06:13:34;99147.92;;;16.90;100.00
50867;BME280;36839;51.946;21.002;2023-07-28T06:16:01;99146.77;;;16.91;100.00
50867;BME280;36839;51.946;21.002;2023-07-28T06:18:28;99146.09;;;16.92;100.00
50867;BME280;36839;51.946;21.002;2023-07-28T06:20:55;99146.38;;;16.93;100.00
50867;BME280;36839;51.946;21.002;2023-07-28T06:23:22;99146.54;;;16.93;100.00
50867;BME280;36839;51.946;21.002;2023-07-28T06:25:51;99152.05;;;16.94;100.00
50867;BME280;36839;51.946;21.002;2023-07-28T06:28:18;99154.23;;;16.95;100.00
50867;BME280;36839;51.946;21.002;2023-07-28T06:30:45;99156.08;;;16.95;100.00
50867;BME280;36839;51.946;21.002;2023-07-28T06:33:12;99156.17;;;16.95;100.00
50867;BME280;36839;51.946;21.002;2023-07-28T06:35:39;99159.65;;;16.98;100.00
50867;BME280;36839;51.946;21.002;2023-07-28T06:38:07;99159.22;;;16.99;100.00
50867;BME280;36839;51.946;21.002;2023-07-28T06:40:34;99163.66;;;16.97;100.00
50867;BME280;36839;51.946;21.002;2023-07-28T06:43:01;99169.13;;;16.92;100.00
50867;BME280;36839;51.946;21.002;2023-07-28T06:45:28;99170.83;;;16.87;100.00
50867;BME280;36839;51.946;21.002;2023-07-28T06:47:56;99175.23;;;16.78;100.00
50867;BME280;36839;51.946;21.002;2023-07-28T06:50:23;99172.14;;;16.72;100.00
50867;BME280;36839;51.946;21.002;2023-07-28T06:52:50;99169.88;;;16.66;100.00
50867;BME280;36839;51.946;21.002;2023-07-28T06:55:17;99164.55;;;16.60;100.00
50867;BME280;36839;51.946;21.002;2023-07-28T06:57:46;99157.86;;;16.50;100.00
50867;BME280;36839;51.946;21.002;2023-07-28T07:00:14;99164.59;;;16.43;100.00
50867;BME280;36839;51.946;21.002;2023-07-28T07:02:42;99163.10;;;16.38;100.00
50867;BME280;36839;51.946;21.002;2023-07-28T07:05:09;99165.20;;;16.29;100.00
50867;BME280;36839;51.946;21.002;2023-07-28T07:07:36;99168.73;;;16.24;100.00
50867;BME280;36839;51.946;21.002;2023-07-28T07:10:04;99180.23;;;16.18;100.00
50867;BME280;36839;51.946;21.002;2023-07-28T07:12:31;99180.23;;;16.11;100.00
50867;BME280;36839;51.946;21.002;2023-07-28T07:14:58;99178.08;;;16.05;100.00
50867;BME280;36839;51.946;21.002;2023-07-28T07:17:25;99183.39;;;16.00;100.00
50867;BME280;36839;51.946;21.002;2023-07-28T07:19:52;99183.55;;;15.99;100.00
50867;BME280;36839;51.946;21.002;2023-07-28T07:22:19;99181.18;;;15.99;100.00
50867;BME280;36839;51.946;21.002;2023-07-28T07:24:46;99174.64;;;15.99;100.00
50867;BME280;36839;51.946;21.002;2023-07-28T07:27:13;99178.17;;;15.99;100.00
50867;BME280;36839;51.946;21.002;2023-07-28T07:29:40;99184.09;;;15.95;100.00
50867;BME280;36839;51.946;21.002;2023-07-28T07:32:08;99184.64;;;15.96;100.00
50867;BME280;36839;51.946;21.002;2023-07-28T07:34:36;99187.11;;;16.00;100.00
50867;BME280;36839;51.946;21.002;2023-07-28T07:37:04;99187.92;;;16.06;100.00
50867;BME280;36839;51.946;21.002;2023-07-28T07:39:32;99184.46;;;16.09;100.00
50867;BME280;36839;51.946;21.002;2023-07-28T07:42:00;99181.12;;;16.13;100.00
50867;BME280;36839;51.946;21.002;2023-07-28T07:44:28;99180.50;;;16.22;100.00
50867;BME280;36839;51.946;21.002;2023-07-28T07:46:55;99184.20;;;16.33;100.00
50867;BME280;36839;51.946;21.002;2023-07-28T07:49:23;99187.70;;;16.44;100.00
50867;BME280;36839;51.946;21.002;2023-07-28T07:51:50;99189.63;;;16.54;100.00
50867;BME280;36839;51.946;21.002;2023-07-28T07:54:17;99186.29;;;16.66;100.00
50867;BME280;36839;51.946;21.002;2023-07-28T07:56:45;99178.36;;;16.74;100.00
50867;BME280;36839;51.946;21.002;2023-07-28T07:59:13;99175.55;;;16.91;100.00
50867;BME280;36839;51.946;21.002;2023-07-28T08:01:40;99181.52;;;17.01;100.00
50867;BME280;36839;51.946;21.002;2023-07-28T08:04:08;99176.02;;;17.09;100.00
50867;BME280;36839;51.946;21.002;2023-07-28T08:06:35;99172.44;;;17.17;100.00
50867;BME280;36839;51.946;21.002;2023-07-28T08:09:03;99175.82;;;17.18;100.00
50867;BME280;36839;51.946;21.002;2023-07-28T08:11:30;99174.89;;;17.19;100.00
50867;BME280;36839;51.946;21.002;2023-07-28T08:13:57;99174.24;;;17.21;100.00
50867;BME280;36839;51.946;21.002;2023-07-28T08:16:24;99178.39;;;17.23;100.00
50867;BME280;36839;51.946;21.002;2023-07-28T08:18:51;99171.30;;;17.25;100.00
50867;BME280;36839;51.946;21.002;2023-07-28T08:21:19;99173.55;;;17.27;100.00
50867;BME280;36839;51.946;21.002;2023-07-28T08:23:46;99169.40;;;17.31;100.00
50867;BME280;36839;51.946;21.002;2023-07-28T08:26:14;99165.67;;;17.41;100.00
50867;BME280;36839;51.946;21.002;2023-07-28T08:28:41;99169.09;;;17.49;100.00
50867;BME280;36839;51.946;21.002;2023-07-28T08:31:08;99167.48;;;17.53;100.00
50867;BME280;36839;51.946;21.002;2023-07-28T08:33:35;99169.79;;;17.59;100.00
50867;BME280;36839;51.946;21.002;2023-07-28T08:36:03;99172.00;;;17.67;100.00
50867;BME280;36839;51.946;21.002;2023-07-28T08:38:30;99171.45;;;17.87;100.00
50867;BME280;36839;51.946;21.002;2023-07-28T08:40:58;99164.90;;;18.00;100.00
50867;BME280;36839;51.946;21.002;2023-07-28T08:43:25;99158.98;;;18.14;100.00
50867;BME280;36839;51.946;21.002;2023-07-28T08:45:53;99159.66;;;18.24;100.00
50867;BME280;36839;51.946;21.002;2023-07-28T08:48:22;99159.46;;;18.30;100.00
50867;BME280;36839;51.946;21.002;2023-07-28T08:50:52;99160.96;;;18.31;100.00
50867;BME280;36839;51.946;21.002;2023-07-28T08:53:20;99160.17;;;18.25;100.00
50867;BME280;36839;51.946;21.002;2023-07-28T08:55:48;99157.34;;;18.14;100.00
50867;BME280;36839;51.946;21.002;2023-07-28T08:58:19;99157.70;;;18.13;100.00
50867;BME280;36839;51.946;21.002;2023-07-28T09:00:51;99159.20;;;18.13;100.00
50867;BME280;36839;51.946;21.002;2023-07-28T09:03:19;99156.03;;;18.09;100.00
50867;BME280;36839;51.946;21.002;2023-07-28T09:05:47;99148.69;;;18.07;100.00
50867;BME280;36839;51.946;21.002;2023-07-28T09:08:15;99140.09;;;18.14;100.00
50867;BME280;36839;51.946;21.002;2023-07-28T09:13:11;99126.58;;;18.20;100.00
50867;BME280;36839;51.946;21.002;2023-07-28T09:15:39;99123.46;;;18.18;100.00
50867;BME280;36839;51.946;21.002;2023-07-28T09:18:08;99123.08;;;18.25;100.00
50867;BME280;36839;51.946;21.002;2023-07-28T09:20:39;99128.00;;;18.32;100.00
50867;BME280;36839;51.946;21.002;2023-07-28T09:23:09;99133.73;;;18.41;100.00
50867;BME280;36839;51.946;21.002;2023-07-28T09:25:37;99137.44;;;18.59;100.00
50867;BME280;36839;51.946;21.002;2023-07-28T09:28:05;99135.10;;;18.75;100.00
50867;BME280;36839;51.946;21.002;2023-07-28T09:30:46;99130.30;;;18.88;100.00
50867;BME280;36839;51.946;21.002;2023-07-28T09:33:14;99129.12;;;19.07;100.00
50867;BME280;36839;51.946;21.002;2023-07-28T09:35:55;99130.03;;;19.24;100.00
50867;BME280;36839;51.946;21.002;2023-07-28T09:38:22;99124.85;;;19.32;100.00
50867;BME280;36839;51.946;21.002;2023-07-28T09:40:51;99116.09;;;19.47;100.00
50867;BME280;36839;51.946;21.002;2023-07-28T09:43:18;99116.16;;;19.55;100.00
50867;BME280;36839;51.946;21.002;2023-07-28T09:45:45;99118.33;;;19.58;100.00
50867;BME280;36839;51.946;21.002;2023-07-28T09:48:14;99117.44;;;19.60;100.00
50867;BME280;36839;51.946;21.002;2023-07-28T09:50:43;99119.58;;;19.57;100.00
50867;BME280;36839;51.946;21.002;2023-07-28T09:53:11;99116.91;;;19.51;100.00
50867;BME280;36839;51.946;21.002;2023-07-28T09:55:40;99105.61;;;19.48;100.00
50867;BME280;36839;51.946;21.002;2023-07-28T09:58:10;99107.27;;;19.47;100.00
50867;BME280;36839;51.946;21.002;2023-07-28T10:00:40;99102.70;;;19.41;100.00
50867;BME280;36839;51.946;21.002;2023-07-28T10:03:08;99098.40;;;19.33;100.00
50867;BME280;36839;51.946;21.002;2023-07-28T10:05:36;99101.77;;;19.28;100.00
50867;BME280;36839;51.946;21.002;2023-07-28T10:08:05;99101.36;;;19.25;100.00
50867;BME280;36839;51.946;21.002;2023-07-28T10:10:33;99102.94;;;19.16;100.00
50867;BME280;36839;51.946;21.002;2023-07-28T10:13:01;99101.20;;;19.12;100.00
50867;BME280;36839;51.946;21.002;2023-07-28T10:15:32;99105.36;;;19.12;100.00
50867;BME280;36839;51.946;21.002;2023-07-28T10:18:00;99109.44;;;19.09;100.00
50867;BME280;36839;51.946;21.002;2023-07-28T10:20:31;99111.52;;;19.05;100.00
50867;BME280;36839;51.946;21.002;2023-07-28T10:23:16;99101.20;;;19.09;100.00
50867;BME280;36839;51.946;21.002;2023-07-28T10:25:45;99099.12;;;19.19;100.00
50867;BME280;36839;51.946;21.002;2023-07-28T10:28:32;99096.11;;;19.31;100.00
50867;BME280;36839;51.946;21.002;2023-07-28T10:31:02;99091.85;;;19.45;100.00
50867;BME280;36839;51.946;21.002;2023-07-28T10:33:37;99088.98;;;19.56;100.00
50867;BME280;36839;51.946;21.002;2023-07-28T10:36:18;99085.61;;;19.67;100.00
50867;BME280;36839;51.946;21.002;2023-07-28T10:41:34;99069.02;;;19.90;100.00
50867;BME280;36839;51.946;21.002;2023-07-28T10:44:02;99072.91;;;19.91;100.00
50867;BME280;36839;51.946;21.002;2023-07-28T10:46:29;99066.63;;;19.93;100.00
50867;BME280;36839;51.946;21.002;2023-07-28T10:48:56;99062.52;;;19.86;100.00
50867;BME280;36839;51.946;21.002;2023-07-28T10:51:31;99061.68;;;19.94;100.00
50867;BME280;36839;51.946;21.002;2023-07-28T10:54:00;99065.84;;;19.97;100.00
50867;BME280;36839;51.946;21.002;2023-07-28T10:56:30;99066.55;;;19.97;100.00
50867;BME280;36839;51.946;21.002;2023-07-28T10:58:58;99074.50;;;19.97;100.00
50867;BME280;36839;51.946;21.002;2023-07-28T11:01:37;99075.99;;;20.00;100.00
50867;BME280;36839;51.946;21.002;2023-07-28T11:04:13;99080.98;;;20.09;100.00
50867;BME280;36839;51.946;21.002;2023-07-28T11:06:42;99075.54;;;20.13;100.00
50867;BME280;36839;51.946;21.002;2023-07-28T11:09:11;99079.52;;;20.13;100.00
50867;BME280;36839;51.946;21.002;2023-07-28T11:11:39;99076.31;;;20.16;100.00
50867;BME280;36839;51.946;21.002;2023-07-28T11:14:08;99078.98;;;20.16;100.00
50867;BME280;36839;51.946;21.002;2023-07-28T11:16:37;99081.52;;;20.19;100.00
50867;BME280;36839;51.946;21.002;2023-07-28T11:19:11;99082.55;;;20.18;100.00
50867;BME280;36839;51.946;21.002;2023-07-28T11:21:41;99081.94;;;20.10;100.00
50867;BME280;36839;51.946;21.002;2023-07-28T11:24:10;99081.98;;;20.12;100.00
50867;BME280;36839;51.946;21.002;2023-07-28T11:26:39;99089.77;;;20.15;100.00
50867;BME280;36839;51.946;21.002;2023-07-28T11:29:07;99085.52;;;20.18;100.00
50867;BME280;36839;51.946;21.002;2023-07-28T11:31:35;99091.54;;;20.18;100.00
50867;BME280;36839;51.946;21.002;2023-07-28T11:34:02;99095.91;;;20.11;100.00
50867;BME280;36839;51.946;21.002;2023-07-28T11:36:30;99094.10;;;20.22;100.00
50867;BME280;36839;51.946;21.002;2023-07-28T11:39:01;99095.34;;;20.39;100.00
50867;BME280;36839;51.946;21.002;2023-07-28T11:41:32;99091.98;;;20.48;100.00
50867;BME280;36839;51.946;21.002;2023-07-28T11:44:01;99091.34;;;20.68;100.00
50867;BME280;36839;51.946;21.002;2023-07-28T11:46:33;99093.09;;;20.89;100.00
50867;BME280;36839;51.946;21.002;2023-07-28T11:49:20;99086.14;;;20.94;100.00
50867;BME280;36839;51.946;21.002;2023-07-28T11:51:52;99081.84;;;20.96;100.00
50867;BME280;36839;51.946;21.002;2023-07-28T11:54:25;99082.05;;;21.08;100.00
50867;BME280;36839;51.946;21.002;2023-07-28T11:56:57;99085.46;;;21.03;100.00
50867;BME280;36839;51.946;21.002;2023-07-28T11:59:24;99085.63;;;20.93;100.00
50867;BME280;36839;51.946;21.002;2023-07-28T12:01:53;99080.66;;;20.93;100.00
50867;BME280;36839;51.946;21.002;2023-07-28T12:04:28;99084.45;;;21.12;100.00
50867;BME280;36839;51.946;21.002;2023-07-28T12:07:09;99088.62;;;21.34;100.00
50867;BME280;36839;51.946;21.002;2023-07-28T12:12:42;99084.07;;;21.47;99.72
50867;BME280;36839;51.946;21.002;2023-07-28T12:15:25;99082.14;;;21.43;100.00
50867;BME280;36839;51.946;21.002;2023-07-28T12:18:10;99082.89;;;21.52;99.95
50867;BME280;36839;51.946;21.002;2023-07-28T12:20:54;99083.05;;;21.52;100.00
50867;BME280;36839;51.946;21.002;2023-07-28T12:23:23;99081.48;;;21.58;100.00
50867;BME280;36839;51.946;21.002;2023-07-28T12:25:50;99082.27;;;21.78;100.00
50867;BME280;36839;51.946;21.002;2023-07-28T12:28:20;99077.37;;;21.91;100.00
50867;BME280;36839;51.946;21.002;2023-07-28T12:30:58;99076.02;;;22.14;100.00
50867;BME280;36839;51.946;21.002;2023-07-28T12:33:27;99079.58;;;22.43;99.64
50867;BME280;36839;51.946;21.002;2023-07-28T12:35:55;99082.96;;;22.39;99.21
50867;BME280;36839;51.946;21.002;2023-07-28T12:38:23;99080.11;;;22.41;99.71
50867;BME280;36839;51.946;21.002;2023-07-28T12:40:53;99074.31;;;22.50;98.08
50867;BME280;36839;51.946;21.002;2023-07-28T12:43:22;99077.02;;;22.65;96.68
50867;BME280;36839;51.946;21.002;2023-07-28T12:45:52;99076.39;;;22.65;96.49
50867;BME280;36839;51.946;21.002;2023-07-28T12:48:23;99081.79;;;22.56;97.52
50867;BME280;36839;51.946;21.002;2023-07-28T12:50:51;99081.77;;;22.45;98.46
50867;BME280;36839;51.946;21.002;2023-07-28T12:53:19;99086.77;;;22.35;99.31
50867;BME280;36839;51.946;21.002;2023-07-28T12:55:46;99092.14;;;22.11;99.55
50867;BME280;36839;51.946;21.002;2023-07-28T12:58:14;99088.55;;;21.84;99.81